Hovedside
METAR-TAF:

METAR-TAF

Lufthavner :

Odense, Danmark

Hans Christian Andersen Airport

breddegrad: 55-29N, lengdegrad: 010-20E, høyde over havet: 17 m

Gjeldene værobservasjon

Denne rapporten ble laget for 2 timer og 1 minutter siden, klokken 16:50 UTC
Vind 4 kt fra Nordøst
Temperatur 11°C
Luftfuktighet 94%
Trykk 1021 hPa
Sikt 10 km eller mer
Få skyer i en høyde av 1600 ft

METAR: EKOD 221650Z 04004KT 9999 FEW016 11/10 Q1021

Tid: 20:51 (18:51 UTC)

Varsel

Denne rapporten ble laget for 6 timer og 55 minutter siden, klokken 11:56 UTC
Varsel gyldig fra 22. klokken 12 UTC til 22. klokken 18 UTC
Vind 5 kt fra Nordøst
Sikt 10 km eller mer
Spredte skyer i en høyde av 2500 ft

TAF: EKOD 221156Z 2212/2218 04005KT 9999 SCT025

Værobservasjoner og værvarsel for over 4000 flyplasser (METAR- og TAF-rapporter).

Tilgjengelige stasjoner er representert av de røde og gule prikkene på kartet.

Hold musepekeren over prikken for å se navnet på stasjonen.

Klikk så for å se værobservasjoner og -varsler.

For å forandre kartet kan du klikke på den grønne knappen med svart kryss for å zoome inn, på den grønne knappen med strek for å zoome ut, eller på de grønne pilene for å se tilstøtende kart.


METAR-TAF: